sensor_id;sensor_type;location;lat;lon;timestamp;pressure;altitude;pressure_sealevel;temperature;humidity
42945;BME280;28584;42.636;23.294;2023-02-22T00:00:40;161147.66;;;9.74;45.35
42945;BME280;28584;42.636;23.294;2023-02-22T00:03:20;161067.56;;;9.44;47.52
42945;BME280;28584;42.636;23.294;2023-02-22T00:05:53;160958.16;;;9.03;48.88
42945;BME280;28584;42.636;23.294;2023-02-22T00:08:21;160771.38;;;8.33;50.57
42945;BME280;28584;42.636;23.294;2023-02-22T00:10:47;160704.66;;;8.08;50.89
42945;BME280;28584;42.636;23.294;2023-02-22T00:13:16;160715.31;;;8.12;50.41
42945;BME280;28584;42.636;23.294;2023-02-22T00:15:42;160851.41;;;8.63;48.94
42945;BME280;28584;42.636;23.294;2023-02-22T00:18:12;160815.44;;;8.50;49.42
42945;BME280;28584;42.636;23.294;2023-02-22T00:20:38;160758.06;;;8.28;49.91
42945;BME280;28584;42.636;23.294;2023-02-22T00:23:05;160686.00;;;8.01;51.12
42945;BME280;28584;42.636;23.294;2023-02-22T00:25:32;160638.00;;;7.83;51.50
42945;BME280;28584;42.636;23.294;2023-02-22T00:27:58;160626.00;;;7.78;51.39
42945;BME280;28584;42.636;23.294;2023-02-22T00:30:26;160646.03;;;7.86;50.67
42945;BME280;28584;42.636;23.294;2023-02-22T00:32:54;160737.97;;;8.20;49.62
42945;BME280;28584;42.636;23.294;2023-02-22T00:35:28;160852.75;;;8.64;48.64
42945;BME280;28584;42.636;23.294;2023-02-22T00:37:57;160904.78;;;8.83;48.04
42945;BME280;28584;42.636;23.294;2023-02-22T00:40:26;160944.78;;;8.98;47.41
42945;BME280;28584;42.636;23.294;2023-02-22T00:42:52;160971.50;;;9.08;47.45
42945;BME280;28584;42.636;23.294;2023-02-22T00:45:20;160999.53;;;9.19;47.52
42945;BME280;28584;42.636;23.294;2023-02-22T00:47:46;160983.50;;;9.13;47.72
42945;BME280;28584;42.636;23.294;2023-02-22T00:50:13;160986.16;;;9.14;47.47
42945;BME280;28584;42.636;23.294;2023-02-22T00:52:38;160995.53;;;9.17;47.60
42945;BME280;28584;42.636;23.294;2023-02-22T00:55:07;160986.16;;;9.14;47.54
42945;BME280;28584;42.636;23.294;2023-02-22T00:57:33;160966.13;;;9.06;47.67
42945;BME280;28584;42.636;23.294;2023-02-22T01:00:00;160991.53;;;9.16;47.60
42945;BME280;28584;42.636;23.294;2023-02-22T01:02:36;161000.84;;;9.19;47.33
42945;BME280;28584;42.636;23.294;2023-02-22T01:05:02;161006.19;;;9.21;47.39
42945;BME280;28584;42.636;23.294;2023-02-22T01:07:28;160950.16;;;9.00;47.75
42945;BME280;28584;42.636;23.294;2023-02-22T01:09:53;160950.16;;;9.00;48.04
42945;BME280;28584;42.636;23.294;2023-02-22T01:12:18;160950.16;;;9.00;48.20
42945;BME280;28584;42.636;23.294;2023-02-22T01:14:45;160968.84;;;9.07;48.08
42945;BME280;28584;42.636;23.294;2023-02-22T01:17:10;160966.13;;;9.06;48.60
42945;BME280;28584;42.636;23.294;2023-02-22T01:19:35;160887.41;;;8.77;48.96
42945;BME280;28584;42.636;23.294;2023-02-22T01:22:01;160886.09;;;8.76;49.36
42945;BME280;28584;42.636;23.294;2023-02-22T01:24:26;160859.41;;;8.66;49.86
42945;BME280;28584;42.636;23.294;2023-02-22T01:26:52;160839.41;;;8.59;49.89
42945;BME280;28584;42.636;23.294;2023-02-22T01:29:18;160846.06;;;8.61;50.15
42945;BME280;28584;42.636;23.294;2023-02-22T01:31:54;160848.75;;;8.62;50.33
42945;BME280;28584;42.636;23.294;2023-02-22T01:34:22;160866.09;;;8.69;50.15
42945;BME280;28584;42.636;23.294;2023-02-22T01:36:48;160840.75;;;8.59;50.29
42945;BME280;28584;42.636;23.294;2023-02-22T01:39:14;160867.44;;;8.69;50.29
42945;BME280;28584;42.636;23.294;2023-02-22T01:41:43;160888.75;;;8.77;50.07
42945;BME280;28584;42.636;23.294;2023-02-22T01:44:35;160926.13;;;8.91;49.80
42945;BME280;28584;42.636;23.294;2023-02-22T01:47:02;160939.50;;;8.96;49.59
42945;BME280;28584;42.636;23.294;2023-02-22T01:49:39;160936.78;;;8.95;49.67
42945;BME280;28584;42.636;23.294;2023-02-22T01:52:09;160963.47;;;9.05;49.60
42945;BME280;28584;42.636;23.294;2023-02-22T01:54:45;160958.16;;;9.03;49.58
42945;BME280;28584;42.636;23.294;2023-02-22T01:57:28;160951.47;;;9.01;49.56
42945;BME280;28584;42.636;23.294;2023-02-22T01:59:59;160943.50;;;8.98;49.53
42945;BME280;28584;42.636;23.294;2023-02-22T02:02:26;160931.47;;;8.93;49.53
42945;BME280;28584;42.636;23.294;2023-02-22T02:04:53;160915.44;;;8.87;49.79
42945;BME280;28584;42.636;23.294;2023-02-22T02:07:21;160920.81;;;8.89;49.78
42945;BME280;28584;42.636;23.294;2023-02-22T02:09:53;160900.78;;;8.82;49.94
42945;BME280;28584;42.636;23.294;2023-02-22T02:12:22;160939.50;;;8.96;49.66
42945;BME280;28584;42.636;23.294;2023-02-22T02:14:48;160951.47;;;9.01;49.67
42945;BME280;28584;42.636;23.294;2023-02-22T02:17:16;160966.13;;;9.06;49.38
42945;BME280;28584;42.636;23.294;2023-02-22T02:33:32;160952.81;;;9.01;49.50
42945;BME280;28584;42.636;23.294;2023-02-22T02:36:19;160942.16;;;8.97;49.79
42945;BME280;28584;42.636;23.294;2023-02-22T02:41:25;160942.16;;;8.97;49.99
42945;BME280;28584;42.636;23.294;2023-02-22T02:47:02;160860.78;;;8.67;51.17
42945;BME280;28584;42.636;23.294;2023-02-22T02:49:53;160763.38;;;8.30;52.14
42945;BME280;28584;42.636;23.294;2023-02-22T02:52:22;160656.66;;;7.90;53.02
42945;BME280;28584;42.636;23.294;2023-02-22T02:54:49;160575.38;;;7.59;53.81
42945;BME280;28584;42.636;23.294;2023-02-22T02:57:15;160486.03;;;7.26;54.49
42945;BME280;28584;42.636;23.294;2023-02-22T02:59:40;160443.44;;;7.10;55.48
42945;BME280;28584;42.636;23.294;2023-02-22T03:07:19;160443.44;;;7.10;56.38
42945;BME280;28584;42.636;23.294;2023-02-22T03:12:43;160634.00;;;7.81;54.52
42945;BME280;28584;42.636;23.294;2023-02-22T03:18:17;160731.31;;;8.18;53.73
42945;BME280;28584;42.636;23.294;2023-02-22T03:23:31;160819.44;;;8.51;53.45
42945;BME280;28584;42.636;23.294;2023-02-22T03:26:06;160782.09;;;8.37;53.49
42945;BME280;28584;42.636;23.294;2023-02-22T03:28:35;160758.06;;;8.28;53.90
42945;BME280;28584;42.636;23.294;2023-02-22T03:31:08;160748.69;;;8.24;53.96
42945;BME280;28584;42.636;23.294;2023-02-22T03:34:11;160764.72;;;8.30;53.84
42945;BME280;28584;42.636;23.294;2023-02-22T03:36:43;160782.09;;;8.37;53.79
42945;BME280;28584;42.636;23.294;2023-02-22T03:39:14;160795.41;;;8.42;53.65
42945;BME280;28584;42.636;23.294;2023-02-22T03:41:42;160812.72;;;8.48;53.59
42945;BME280;28584;42.636;23.294;2023-02-22T03:44:15;160870.09;;;8.70;53.14
42945;BME280;28584;42.636;23.294;2023-02-22T03:46:44;160942.16;;;8.97;52.51
42945;BME280;28584;42.636;23.294;2023-02-22T03:51:54;160931.47;;;8.93;52.48
42945;BME280;28584;42.636;23.294;2023-02-22T03:54:20;160950.16;;;9.00;52.38
42945;BME280;28584;42.636;23.294;2023-02-22T03:56:53;160947.44;;;8.99;52.45
42945;BME280;28584;42.636;23.294;2023-02-22T03:59:21;160967.47;;;9.07;52.31
42945;BME280;28584;42.636;23.294;2023-02-22T04:01:55;161016.88;;;9.25;51.89
42945;BME280;28584;42.636;23.294;2023-02-22T04:04:22;161035.56;;;9.32;51.87
42945;BME280;28584;42.636;23.294;2023-02-22T04:06:48;161040.91;;;9.34;51.78
42945;BME280;28584;42.636;23.294;2023-02-22T04:09:15;161034.19;;;9.32;51.79
42945;BME280;28584;42.636;23.294;2023-02-22T04:11:40;161050.22;;;9.38;52.34
42945;BME280;28584;42.636;23.294;2023-02-22T04:14:06;161095.63;;;9.55;52.46
42945;BME280;28584;42.636;23.294;2023-02-22T04:16:31;161104.94;;;9.58;52.15
42945;BME280;28584;42.636;23.294;2023-02-22T04:18:57;161075.56;;;9.47;52.60
42945;BME280;28584;42.636;23.294;2023-02-22T04:21:22;161083.59;;;9.50;52.76
42945;BME280;28584;42.636;23.294;2023-02-22T04:23:48;161074.28;;;9.47;52.83
42945;BME280;28584;42.636;23.294;2023-02-22T04:26:13;161091.59;;;9.53;53.03
42945;BME280;28584;42.636;23.294;2023-02-22T04:28:38;161080.94;;;9.49;53.52
42945;BME280;28584;42.636;23.294;2023-02-22T04:31:04;161067.56;;;9.44;54.00
42945;BME280;28584;42.636;23.294;2023-02-22T04:33:29;161051.56;;;9.38;54.10
42945;BME280;28584;42.636;23.294;2023-02-22T04:35:55;161034.19;;;9.32;54.33
42945;BME280;28584;42.636;23.294;2023-02-22T04:38:22;160995.53;;;9.17;54.26
42945;BME280;28584;42.636;23.294;2023-02-22T04:40:50;160976.84;;;9.10;54.57
42945;BME280;28584;42.636;23.294;2023-02-22T04:43:16;160952.81;;;9.01;54.77
42945;BME280;28584;42.636;23.294;2023-02-22T04:45:41;160974.16;;;9.09;55.24
42945;BME280;28584;42.636;23.294;2023-02-22T04:48:07;160948.81;;;9.00;55.39
42945;BME280;28584;42.636;23.294;2023-02-22T04:50:32;160966.13;;;9.06;55.28
42945;BME280;28584;42.636;23.294;2023-02-22T04:52:58;160927.47;;;8.92;55.34
42945;BME280;28584;42.636;23.294;2023-02-22T04:55:23;160888.75;;;8.77;55.81
42945;BME280;28584;42.636;23.294;2023-02-22T04:57:48;160847.41;;;8.62;56.11
42945;BME280;28584;42.636;23.294;2023-02-22T05:00:16;160811.41;;;8.48;56.69
42945;BME280;28584;42.636;23.294;2023-02-22T05:02:43;160803.41;;;8.45;56.89
42945;BME280;28584;42.636;23.294;2023-02-22T05:05:09;160800.75;;;8.44;57.15
42945;BME280;28584;42.636;23.294;2023-02-22T05:07:35;160803.41;;;8.45;57.17
42945;BME280;28584;42.636;23.294;2023-02-22T05:10:01;160800.75;;;8.44;57.17
42945;BME280;28584;42.636;23.294;2023-02-22T05:12:26;160814.06;;;8.49;56.92
42945;BME280;28584;42.636;23.294;2023-02-22T05:14:52;160832.75;;;8.56;56.89
42945;BME280;28584;42.636;23.294;2023-02-22T05:17:17;160839.41;;;8.59;56.81
42945;BME280;28584;42.636;23.294;2023-02-22T05:19:43;160875.44;;;8.72;57.03
42945;BME280;28584;42.636;23.294;2023-02-22T05:22:08;160832.75;;;8.56;57.06
42945;BME280;28584;42.636;23.294;2023-02-22T05:24:34;160712.66;;;8.11;58.20
42945;BME280;28584;42.636;23.294;2023-02-22T05:26:59;160658.03;;;7.90;59.41
42945;BME280;28584;42.636;23.294;2023-02-22T05:29:25;160602.03;;;7.69;60.06
42945;BME280;28584;42.636;23.294;2023-02-22T05:31:50;160528.72;;;7.42;61.11
42945;BME280;28584;42.636;23.294;2023-02-22T05:34:16;160478.09;;;7.23;62.26
42945;BME280;28584;42.636;23.294;2023-02-22T05:36:41;160444.75;;;7.10;64.79
42945;BME280;28584;42.636;23.294;2023-02-22T05:39:07;160451.44;;;7.13;67.03
42945;BME280;28584;42.636;23.294;2023-02-22T05:41:32;160447.44;;;7.11;67.61
42945;BME280;28584;42.636;23.294;2023-02-22T05:43:57;160483.41;;;7.25;69.14
42945;BME280;28584;42.636;23.294;2023-02-22T05:46:23;160591.34;;;7.65;68.52
42945;BME280;28584;42.636;23.294;2023-02-22T05:48:49;160646.03;;;7.86;66.43
42945;BME280;28584;42.636;23.294;2023-02-22T05:51:14;160699.34;;;8.06;64.43
42945;BME280;28584;42.636;23.294;2023-02-22T05:53:40;160733.97;;;8.19;62.20
42945;BME280;28584;42.636;23.294;2023-02-22T05:56:07;160774.06;;;8.34;60.81
42945;BME280;28584;42.636;23.294;2023-02-22T05:58:33;160770.06;;;8.32;60.46
42945;BME280;28584;42.636;23.294;2023-02-22T06:00:58;160800.75;;;8.44;61.58
42945;BME280;28584;42.636;23.294;2023-02-22T06:03:24;160971.50;;;9.08;60.81
42945;BME280;28584;42.636;23.294;2023-02-22T06:05:49;161123.66;;;9.65;58.90
42945;BME280;28584;42.636;23.294;2023-02-22T06:08:15;161118.31;;;9.63;56.80
42945;BME280;28584;42.636;23.294;2023-02-22T06:10:42;161133.00;;;9.69;57.24
42945;BME280;28584;42.636;23.294;2023-02-22T06:13:08;161234.53;;;10.07;56.71
42945;BME280;28584;42.636;23.294;2023-02-22T06:15:33;161302.63;;;10.32;55.48
42945;BME280;28584;42.636;23.294;2023-02-22T06:17:59;161354.72;;;10.52;55.41
42945;BME280;28584;42.636;23.294;2023-02-22T06:20:27;161389.47;;;10.65;54.27
42945;BME280;28584;42.636;23.294;2023-02-22T06:22:54;161464.28;;;10.93;52.87
42945;BME280;28584;42.636;23.294;2023-02-22T06:25:23;161496.34;;;11.05;52.50
42945;BME280;28584;42.636;23.294;2023-02-22T06:27:49;161561.84;;;11.30;52.03
42945;BME280;28584;42.636;23.294;2023-02-22T06:30:16;161618.00;;;11.51;51.32
42945;BME280;28584;42.636;23.294;2023-02-22T06:32:42;161559.19;;;11.29;52.12
42945;BME280;28584;42.636;23.294;2023-02-22T06:35:07;161579.22;;;11.36;52.69
42945;BME280;28584;42.636;23.294;2023-02-22T06:37:33;161676.88;;;11.73;52.50
42945;BME280;28584;42.636;23.294;2023-02-22T06:39:58;161782.50;;;12.12;51.44
42945;BME280;28584;42.636;23.294;2023-02-22T06:42:24;161853.41;;;12.39;51.15
42945;BME280;28584;42.636;23.294;2023-02-22T06:44:49;161944.41;;;12.73;50.04
42945;BME280;28584;42.636;23.294;2023-02-22T06:47:15;162023.41;;;13.02;49.22
42945;BME280;28584;42.636;23.294;2023-02-22T06:49:40;162083.66;;;13.25;48.61
42945;BME280;28584;42.636;23.294;2023-02-22T06:52:07;162097.06;;;13.30;48.27
42945;BME280;28584;42.636;23.294;2023-02-22T06:54:33;162169.38;;;13.57;47.22
42945;BME280;28584;42.636;23.294;2023-02-22T06:56:58;162119.81;;;13.38;46.90
42945;BME280;28584;42.636;23.294;2023-02-22T06:59:24;161741.06;;;11.97;47.85
42945;BME280;28584;42.636;23.294;2023-02-22T07:01:49;161380.09;;;10.61;51.37
42945;BME280;28584;42.636;23.294;2023-02-22T07:04:15;161229.09;;;10.05;52.82
42945;BME280;28584;42.636;23.294;2023-02-22T07:06:45;160995.53;;;9.17;55.25
42945;BME280;28584;42.636;23.294;2023-02-22T07:09:11;161123.66;;;9.65;54.81
42945;BME280;28584;42.636;23.294;2023-02-22T07:11:38;161360.09;;;10.54;53.64
42945;BME280;28584;42.636;23.294;2023-02-22T07:14:03;161124.97;;;9.66;54.35
42945;BME280;28584;42.636;23.294;2023-02-22T07:16:29;161131.63;;;9.68;55.26
42945;BME280;28584;42.636;23.294;2023-02-22T07:18:54;161317.34;;;10.38;53.58
42945;BME280;28584;42.636;23.294;2023-02-22T07:21:20;161425.53;;;10.78;53.18
42945;BME280;28584;42.636;23.294;2023-02-22T07:23:52;161581.94;;;11.37;52.11
42945;BME280;28584;42.636;23.294;2023-02-22T07:26:19;161696.94;;;11.80;51.19
42945;BME280;28584;42.636;23.294;2023-02-22T07:28:44;161670.19;;;11.70;51.06
42945;BME280;28584;42.636;23.294;2023-02-22T07:31:10;161564.53;;;11.31;51.66
42945;BME280;28584;42.636;23.294;2023-02-22T07:33:35;161398.81;;;10.68;51.94
42945;BME280;28584;42.636;23.294;2023-02-22T07:36:00;161291.97;;;10.28;54.09
42945;BME280;28584;42.636;23.294;2023-02-22T07:38:26;161321.34;;;10.39;53.18
42945;BME280;28584;42.636;23.294;2023-02-22T07:40:53;161246.56;;;10.11;54.17
42945;BME280;28584;42.636;23.294;2023-02-22T07:43:21;161231.88;;;10.06;54.50
42945;BME280;28584;42.636;23.294;2023-02-22T07:45:48;161511.03;;;11.10;52.82
42945;BME280;28584;42.636;23.294;2023-02-22T07:48:15;161713.00;;;11.86;51.46
42945;BME280;28584;42.636;23.294;2023-02-22T07:50:41;161952.44;;;12.76;49.60
42945;BME280;28584;42.636;23.294;2023-02-22T07:53:11;162048.88;;;13.12;47.97
42945;BME280;28584;42.636;23.294;2023-02-22T07:55:37;162265.78;;;13.93;47.55
42945;BME280;28584;42.636;23.294;2023-02-22T07:58:05;162453.38;;;14.63;45.53
42945;BME280;28584;42.636;23.294;2023-02-22T08:00:36;162402.47;;;14.44;45.51
42945;BME280;28584;42.636;23.294;2023-02-22T08:03:05;162193.44;;;13.66;46.38
42945;BME280;28584;42.636;23.294;2023-02-22T08:05:32;162196.09;;;13.67;47.13
42945;BME280;28584;42.636;23.294;2023-02-22T08:07:58;162201.47;;;13.69;46.72
42945;BME280;28584;42.636;23.294;2023-02-22T08:10:24;161947.09;;;12.74;48.37
42945;BME280;28584;42.636;23.294;2023-02-22T08:12:51;161969.88;;;12.82;48.21
42945;BME280;28584;42.636;23.294;2023-02-22T08:15:25;161920.34;;;12.64;48.81
42945;BME280;28584;42.636;23.294;2023-02-22T08:17:52;161834.69;;;12.32;48.98
42945;BME280;28584;42.636;23.294;2023-02-22T08:20:18;161904.28;;;12.58;49.53
42945;BME280;28584;42.636;23.294;2023-02-22T08:22:45;161893.56;;;12.54;49.09
42945;BME280;28584;42.636;23.294;2023-02-22T08:25:12;161828.00;;;12.29;49.80
42945;BME280;28584;42.636;23.294;2023-02-22T08:27:39;161888.19;;;12.52;49.03
42945;BME280;28584;42.636;23.294;2023-02-22T08:30:05;161909.59;;;12.60;48.84
42945;BME280;28584;42.636;23.294;2023-02-22T08:32:32;161872.13;;;12.46;49.08
42945;BME280;28584;42.636;23.294;2023-02-22T08:34:57;161904.28;;;12.58;48.97
42945;BME280;28584;42.636;23.294;2023-02-22T08:37:23;161709.00;;;11.85;49.56
42945;BME280;28584;42.636;23.294;2023-02-22T08:39:48;161821.31;;;12.27;49.78
42945;BME280;28584;42.636;23.294;2023-02-22T08:42:14;161944.41;;;12.73;49.23
42945;BME280;28584;42.636;23.294;2023-02-22T08:44:39;161900.25;;;12.56;48.61
42945;BME280;28584;42.636;23.294;2023-02-22T08:47:06;162086.34;;;13.26;47.79
42945;BME280;28584;42.636;23.294;2023-02-22T08:49:32;162070.28;;;13.20;47.65
42945;BME280;28584;42.636;23.294;2023-02-22T08:51:57;162230.94;;;13.80;46.64
42945;BME280;28584;42.636;23.294;2023-02-22T08:54:23;162305.94;;;14.08;45.74
42945;BME280;28584;42.636;23.294;2023-02-22T08:56:49;162335.41;;;14.19;45.52
42945;BME280;28584;42.636;23.294;2023-02-22T08:59:15;162244.34;;;13.85;46.39
42945;BME280;28584;42.636;23.294;2023-02-22T09:01:41;162155.94;;;13.52;45.98
42945;BME280;28584;42.636;23.294;2023-02-22T09:04:06;162226.91;;;13.78;45.77
42945;BME280;28584;42.636;23.294;2023-02-22T09:06:32;162212.19;;;13.73;46.01
42945;BME280;28584;42.636;23.294;2023-02-22T09:08:57;162261.75;;;13.92;45.72
42945;BME280;28584;42.636;23.294;2023-02-22T09:11:23;162273.81;;;13.96;45.55
42945;BME280;28584;42.636;23.294;2023-02-22T09:13:48;162107.75;;;13.34;47.24
42945;BME280;28584;42.636;23.294;2023-02-22T09:16:14;162158.63;;;13.53;47.27
42945;BME280;28584;42.636;23.294;2023-02-22T09:18:39;162129.16;;;13.42;46.21
42945;BME280;28584;42.636;23.294;2023-02-22T09:21:05;162189.41;;;13.64;45.61
42945;BME280;28584;42.636;23.294;2023-02-22T09:23:30;162101.06;;;13.31;46.86
42945;BME280;28584;42.636;23.294;2023-02-22T09:25:56;161967.16;;;12.81;46.94
42945;BME280;28584;42.636;23.294;2023-02-22T09:28:24;162031.44;;;13.05;47.24
42945;BME280;28584;42.636;23.294;2023-02-22T09:30:50;162047.53;;;13.11;47.62
42945;BME280;28584;42.636;23.294;2023-02-22T09:33:17;162155.94;;;13.52;47.15
42945;BME280;28584;42.636;23.294;2023-02-22T09:35:44;162249.69;;;13.87;47.21
42945;BME280;28584;42.636;23.294;2023-02-22T09:38:12;162119.81;;;13.38;47.32
42945;BME280;28584;42.636;23.294;2023-02-22T09:40:42;162121.13;;;13.39;47.57
42945;BME280;28584;42.636;23.294;2023-02-22T09:48:23;161976.53;;;12.85;48.15
42945;BME280;28584;42.636;23.294;2023-02-22T09:50:51;161997.94;;;12.93;47.67
42945;BME280;28584;42.636;23.294;2023-02-22T09:53:31;161968.50;;;12.82;47.80
42945;BME280;28584;42.636;23.294;2023-02-22T09:56:06;162024.75;;;13.03;48.53
42945;BME280;28584;42.636;23.294;2023-02-22T09:58:38;162007.34;;;12.96;47.85
42945;BME280;28584;42.636;23.294;2023-02-22T10:06:21;162059.59;;;13.16;47.85
42945;BME280;28584;42.636;23.294;2023-02-22T10:08:48;162091.69;;;13.28;47.64
42945;BME280;28584;42.636;23.294;2023-02-22T10:11:37;162078.31;;;13.23;46.67
42945;BME280;28584;42.636;23.294;2023-02-22T10:16:40;162106.41;;;13.33;47.31
42945;BME280;28584;42.636;23.294;2023-02-22T10:19:19;162093.03;;;13.28;46.95
42945;BME280;28584;42.636;23.294;2023-02-22T10:26:49;162113.09;;;13.36;46.89
42945;BME280;28584;42.636;23.294;2023-02-22T10:29:19;162135.84;;;13.44;46.84
42945;BME280;28584;42.636;23.294;2023-02-22T10:31:52;162126.50;;;13.41;46.11
42945;BME280;28584;42.636;23.294;2023-02-22T10:34:26;162185.41;;;13.63;46.77
42945;BME280;28584;42.636;23.294;2023-02-22T10:37:12;162220.22;;;13.76;45.53
42945;BME280;28584;42.636;23.294;2023-02-22T10:39:42;162238.97;;;13.83;45.58
42945;BME280;28584;42.636;23.294;2023-02-22T10:42:09;162238.97;;;13.83;44.95
42945;BME280;28584;42.636;23.294;2023-02-22T10:44:35;162212.19;;;13.73;44.94
42945;BME280;28584;42.636;23.294;2023-02-22T10:47:04;162193.44;;;13.66;44.63
42945;BME280;28584;42.636;23.294;2023-02-22T10:49:35;162214.84;;;13.74;45.24
42945;BME280;28584;42.636;23.294;2023-02-22T10:52:12;162188.13;;;13.64;44.99
42945;BME280;28584;42.636;23.294;2023-02-22T10:54:40;162228.28;;;13.79;45.15
42945;BME280;28584;42.636;23.294;2023-02-22T10:57:08;162217.56;;;13.75;45.04
42945;BME280;28584;42.636;23.294;2023-02-22T10:59:36;162241.63;;;13.84;44.92
42945;BME280;28584;42.636;23.294;2023-02-22T11:04:49;162277.84;;;13.98;44.01
42945;BME280;28584;42.636;23.294;2023-02-22T11:07:27;162291.19;;;14.03;43.73
42945;BME280;28584;42.636;23.294;2023-02-22T11:14:53;162279.13;;;13.98;44.68
42945;BME280;28584;42.636;23.294;2023-02-22T11:17:33;162296.59;;;14.05;44.29
42945;BME280;28584;42.636;23.294;2023-02-22T11:19:59;162313.97;;;14.11;43.98
42945;BME280;28584;42.636;23.294;2023-02-22T11:22:35;162291.19;;;14.03;44.29
42945;BME280;28584;42.636;23.294;2023-02-22T11:25:02;162332.72;;;14.18;44.28
42945;BME280;28584;42.636;23.294;2023-02-22T11:27:42;162313.97;;;14.11;44.19
42945;BME280;28584;42.636;23.294;2023-02-22T11:30:27;162305.94;;;14.08;44.25
42945;BME280;28584;42.636;23.294;2023-02-22T11:37:53;162367.63;;;14.31;43.37
42945;BME280;28584;42.636;23.294;2023-02-22T11:40:22;162331.44;;;14.18;43.08
42945;BME280;28584;42.636;23.294;2023-02-22T11:42:49;162319.34;;;14.13;42.43
42945;BME280;28584;42.636;23.294;2023-02-22T11:45:29;162303.28;;;14.07;42.51
42945;BME280;28584;42.636;23.294;2023-02-22T11:48:00;162322.03;;;14.14;42.63
42945;BME280;28584;42.636;23.294;2023-02-22T11:50:41;162367.63;;;14.31;42.13
42945;BME280;28584;42.636;23.294;2023-02-22T11:56:15;162399.75;;;14.43;42.50
42945;BME280;28584;42.636;23.294;2023-02-22T11:58:47;162444.00;;;14.60;41.92
42945;BME280;28584;42.636;23.294;2023-02-22T12:01:41;162461.41;;;14.66;42.42
42945;BME280;28584;42.636;23.294;2023-02-22T12:09:32;162476.16;;;14.72;42.94
42945;BME280;28584;42.636;23.294;2023-02-22T12:14:48;162407.81;;;14.46;42.32
42945;BME280;28584;42.636;23.294;2023-02-22T12:22:35;162441.28;;;14.59;41.74
42945;BME280;28584;42.636;23.294;2023-02-22T12:28:09;162500.28;;;14.81;40.92
42945;BME280;28584;42.636;23.294;2023-02-22T12:30:40;162501.59;;;14.81;40.91
42945;BME280;28584;42.636;23.294;2023-02-22T12:33:15;162433.28;;;14.56;41.01
42945;BME280;28584;42.636;23.294;2023-02-22T12:35:52;162453.38;;;14.63;41.06
42945;BME280;28584;42.636;23.294;2023-02-22T12:38:34;162506.97;;;14.83;41.00
42945;BME280;28584;42.636;23.294;2023-02-22T12:41:28;162482.84;;;14.74;41.08
42945;BME280;28584;42.636;23.294;2023-02-22T12:44:07;162523.09;;;14.89;41.42
42945;BME280;28584;42.636;23.294;2023-02-22T12:46:43;162464.06;;;14.67;42.40
42945;BME280;28584;42.636;23.294;2023-02-22T12:49:24;162492.25;;;14.78;42.91
42945;BME280;28584;42.636;23.294;2023-02-22T12:57:57;162520.38;;;14.88;42.08
42945;BME280;28584;42.636;23.294;2023-02-22T13:00:32;162469.47;;;14.69;42.30
42945;BME280;28584;42.636;23.294;2023-02-22T13:03:00;162482.84;;;14.74;42.18
42945;BME280;28584;42.636;23.294;2023-02-22T13:05:29;162485.56;;;14.75;42.13
42945;BME280;28584;42.636;23.294;2023-02-22T13:08:15;162509.66;;;14.84;42.34
42945;BME280;28584;42.636;23.294;2023-02-22T13:13:34;162533.78;;;14.93;42.24
42945;BME280;28584;42.636;23.294;2023-02-22T13:16:14;162532.44;;;14.93;42.62
42945;BME280;28584;42.636;23.294;2023-02-22T13:19:02;162516.34;;;14.87;42.18
42945;BME280;28584;42.636;23.294;2023-02-22T13:21:48;162489.59;;;14.77;42.28
42945;BME280;28584;42.636;23.294;2023-02-22T13:27:19;162476.16;;;14.72;41.78
42945;BME280;28584;42.636;23.294;2023-02-22T13:29:48;162464.06;;;14.67;41.80
42945;BME280;28584;42.636;23.294;2023-02-22T13:51:30;162494.91;;;14.79;41.54
42945;BME280;28584;42.636;23.294;2023-02-22T13:56:26;162474.78;;;14.71;41.67
42945;BME280;28584;42.636;23.294;2023-02-22T13:59:00;162486.88;;;14.76;41.79
42945;BME280;28584;42.636;23.294;2023-02-22T14:01:40;162481.53;;;14.74;42.10
42945;BME280;28584;42.636;23.294;2023-02-22T14:06:46;162468.09;;;14.69;42.57
42945;BME280;28584;42.636;23.294;2023-02-22T14:09:16;162465.44;;;14.68;42.26
42945;BME280;28584;42.636;23.294;2023-02-22T14:11:47;162462.78;;;14.67;42.22
42945;BME280;28584;42.636;23.294;2023-02-22T14:14:18;162468.09;;;14.69;42.11
42945;BME280;28584;42.636;23.294;2023-02-22T14:17:20;162460.06;;;14.66;42.24
42945;BME280;28584;42.636;23.294;2023-02-22T14:22:44;162442.66;;;14.59;42.86
42945;BME280;28584;42.636;23.294;2023-02-22T14:25:47;162423.91;;;14.52;43.05
42945;BME280;28584;42.636;23.294;2023-02-22T14:34:07;162387.75;;;14.39;43.69
42945;BME280;28584;42.636;23.294;2023-02-22T14:39:26;162276.47;;;13.97;44.54
42945;BME280;28584;42.636;23.294;2023-02-22T14:42:29;162256.38;;;13.89;45.28
42945;BME280;28584;42.636;23.294;2023-02-22T14:45:22;162205.50;;;13.70;46.35
42945;BME280;28584;42.636;23.294;2023-02-22T14:47:54;162145.25;;;13.48;46.55
42945;BME280;28584;42.636;23.294;2023-02-22T14:55:46;162040.84;;;13.09;48.04
42945;BME280;28584;42.636;23.294;2023-02-22T14:58:18;161992.56;;;12.91;48.43
42945;BME280;28584;42.636;23.294;2023-02-22T15:00:47;161944.41;;;12.73;49.00
42945;BME280;28584;42.636;23.294;2023-02-22T15:05:52;161905.63;;;12.58;49.63
42945;BME280;28584;42.636;23.294;2023-02-22T15:08:18;161910.94;;;12.60;49.93
42945;BME280;28584;42.636;23.294;2023-02-22T15:10:52;161905.63;;;12.58;49.83
42945;BME280;28584;42.636;23.294;2023-02-22T15:13:24;161889.56;;;12.52;50.32
42945;BME280;28584;42.636;23.294;2023-02-22T15:16:02;161885.53;;;12.51;50.60
42945;BME280;28584;42.636;23.294;2023-02-22T15:18:40;161869.47;;;12.45;50.49